sensor_id;sensor_type;location;lat;lon;timestamp;P1;durP1;ratioP1;P2;durP2;ratioP2
21894;SDS011;11112;51.270;7.224;2022-12-18T00:00:12;12.60;;;5.90;;
21894;SDS011;11112;51.270;7.224;2022-12-18T00:02:43;12.30;;;6.40;;
21894;SDS011;11112;51.270;7.224;2022-12-18T00:05:10;11.70;;;6.05;;
21894;SDS011;11112;51.270;7.224;2022-12-18T00:07:37;11.18;;;5.68;;
21894;SDS011;11112;51.270;7.224;2022-12-18T00:10:05;12.18;;;6.45;;
21894;SDS011;11112;51.270;7.224;2022-12-18T00:12:35;13.10;;;6.47;;
21894;SDS011;11112;51.270;7.224;2022-12-18T00:15:03;15.00;;;6.70;;
21894;SDS011;11112;51.270;7.224;2022-12-18T00:17:31;11.50;;;6.03;;
21894;SDS011;11112;51.270;7.224;2022-12-18T00:19:58;12.68;;;6.13;;
21894;SDS011;11112;51.270;7.224;2022-12-18T00:22:26;11.25;;;6.20;;
21894;SDS011;11112;51.270;7.224;2022-12-18T00:24:53;13.30;;;6.43;;
21894;SDS011;11112;51.270;7.224;2022-12-18T00:27:21;12.73;;;5.82;;
21894;SDS011;11112;51.270;7.224;2022-12-18T00:29:51;10.98;;;6.05;;
21894;SDS011;11112;51.270;7.224;2022-12-18T00:32:20;11.32;;;5.85;;
21894;SDS011;11112;51.270;7.224;2022-12-18T00:34:48;15.07;;;6.45;;
21894;SDS011;11112;51.270;7.224;2022-12-18T00:37:15;13.35;;;6.57;;
21894;SDS011;11112;51.270;7.224;2022-12-18T00:39:47;12.05;;;6.00;;
21894;SDS011;11112;51.270;7.224;2022-12-18T00:42:15;13.63;;;6.20;;
21894;SDS011;11112;51.270;7.224;2022-12-18T00:45:03;11.82;;;6.25;;
21894;SDS011;11112;51.270;7.224;2022-12-18T00:47:32;11.15;;;5.88;;
21894;SDS011;11112;51.270;7.224;2022-12-18T00:49:59;12.20;;;6.05;;
21894;SDS011;11112;51.270;7.224;2022-12-18T00:52:29;16.67;;;6.70;;
21894;SDS011;11112;51.270;7.224;2022-12-18T00:54:58;12.77;;;6.28;;
21894;SDS011;11112;51.270;7.224;2022-12-18T00:57:25;12.35;;;6.50;;
21894;SDS011;11112;51.270;7.224;2022-12-18T00:59:57;13.10;;;6.47;;
21894;SDS011;11112;51.270;7.224;2022-12-18T01:02:26;12.95;;;6.65;;
21894;SDS011;11112;51.270;7.224;2022-12-18T01:04:54;11.95;;;6.10;;
21894;SDS011;11112;51.270;7.224;2022-12-18T01:07:22;12.55;;;6.53;;
21894;SDS011;11112;51.270;7.224;2022-12-18T01:09:49;11.48;;;6.22;;
21894;SDS011;11112;51.270;7.224;2022-12-18T01:12:17;11.48;;;6.30;;
21894;SDS011;11112;51.270;7.224;2022-12-18T01:14:44;15.27;;;6.82;;
21894;SDS011;11112;51.270;7.224;2022-12-18T01:17:12;13.10;;;6.38;;
21894;SDS011;11112;51.270;7.224;2022-12-18T01:19:41;14.25;;;7.05;;
21894;SDS011;11112;51.270;7.224;2022-12-18T01:22:08;13.07;;;6.63;;
21894;SDS011;11112;51.270;7.224;2022-12-18T01:24:36;12.35;;;6.18;;
21894;SDS011;11112;51.270;7.224;2022-12-18T01:27:03;13.52;;;6.85;;
21894;SDS011;11112;51.270;7.224;2022-12-18T01:29:30;11.70;;;6.35;;
21894;SDS011;11112;51.270;7.224;2022-12-18T01:32:00;11.07;;;6.47;;
21894;SDS011;11112;51.270;7.224;2022-12-18T01:34:27;13.85;;;6.70;;
21894;SDS011;11112;51.270;7.224;2022-12-18T01:36:57;11.48;;;6.13;;
21894;SDS011;11112;51.270;7.224;2022-12-18T01:39:27;13.15;;;6.47;;
21894;SDS011;11112;51.270;7.224;2022-12-18T01:41:54;11.93;;;6.80;;
21894;SDS011;11112;51.270;7.224;2022-12-18T01:47:47;13.80;;;7.38;;
21894;SDS011;11112;51.270;7.224;2022-12-18T01:50:19;15.52;;;7.40;;
21894;SDS011;11112;51.270;7.224;2022-12-18T01:52:54;15.75;;;8.02;;
21894;SDS011;11112;51.270;7.224;2022-12-18T01:55:26;15.35;;;7.93;;
21894;SDS011;11112;51.270;7.224;2022-12-18T01:58:02;15.52;;;7.82;;
21894;SDS011;11112;51.270;7.224;2022-12-18T02:00:30;12.95;;;7.18;;
21894;SDS011;11112;51.270;7.224;2022-12-18T02:03:01;12.65;;;7.10;;
21894;SDS011;11112;51.270;7.224;2022-12-18T02:05:31;14.35;;;6.90;;
21894;SDS011;11112;51.270;7.224;2022-12-18T02:08:12;13.48;;;6.55;;
21894;SDS011;11112;51.270;7.224;2022-12-18T02:10:51;11.80;;;6.25;;
21894;SDS011;11112;51.270;7.224;2022-12-18T02:13:27;11.60;;;6.40;;
21894;SDS011;11112;51.270;7.224;2022-12-18T02:16:06;12.23;;;6.55;;
21894;SDS011;11112;51.270;7.224;2022-12-18T02:18:41;12.05;;;6.60;;
21894;SDS011;11112;51.270;7.224;2022-12-18T02:21:12;11.50;;;6.18;;
21894;SDS011;11112;51.270;7.224;2022-12-18T02:23:56;11.25;;;5.95;;
21894;SDS011;11112;51.270;7.224;2022-12-18T02:26:38;13.55;;;6.65;;
21894;SDS011;11112;51.270;7.224;2022-12-18T02:29:13;13.18;;;6.78;;
21894;SDS011;11112;51.270;7.224;2022-12-18T02:31:47;15.43;;;6.95;;
21894;SDS011;11112;51.270;7.224;2022-12-18T02:34:19;12.10;;;6.15;;
21894;SDS011;11112;51.270;7.224;2022-12-18T02:36:50;12.93;;;6.65;;
21894;SDS011;11112;51.270;7.224;2022-12-18T02:39:19;12.15;;;6.53;;
21894;SDS011;11112;51.270;7.224;2022-12-18T02:41:49;12.75;;;6.25;;
21894;SDS011;11112;51.270;7.224;2022-12-18T02:44:17;12.70;;;6.03;;
21894;SDS011;11112;51.270;7.224;2022-12-18T02:46:46;14.27;;;6.90;;
21894;SDS011;11112;51.270;7.224;2022-12-18T02:49:21;13.65;;;7.07;;
21894;SDS011;11112;51.270;7.224;2022-12-18T02:52:01;12.52;;;6.63;;
21894;SDS011;11112;51.270;7.224;2022-12-18T02:54:44;11.85;;;6.90;;
21894;SDS011;11112;51.270;7.224;2022-12-18T02:57:28;11.20;;;5.90;;
21894;SDS011;11112;51.270;7.224;2022-12-18T03:00:04;14.02;;;6.55;;
21894;SDS011;11112;51.270;7.224;2022-12-18T03:02:37;11.65;;;6.57;;
21894;SDS011;11112;51.270;7.224;2022-12-18T03:05:13;11.90;;;6.78;;
21894;SDS011;11112;51.270;7.224;2022-12-18T03:07:46;12.93;;;6.45;;
21894;SDS011;11112;51.270;7.224;2022-12-18T03:10:21;12.15;;;6.35;;
21894;SDS011;11112;51.270;7.224;2022-12-18T03:13:00;11.80;;;6.65;;
21894;SDS011;11112;51.270;7.224;2022-12-18T03:15:33;12.95;;;6.63;;
21894;SDS011;11112;51.270;7.224;2022-12-18T03:18:05;10.10;;;6.07;;
21894;SDS011;11112;51.270;7.224;2022-12-18T03:20:37;11.68;;;6.10;;
21894;SDS011;11112;51.270;7.224;2022-12-18T03:23:13;12.30;;;6.63;;
21894;SDS011;11112;51.270;7.224;2022-12-18T03:25:44;12.95;;;6.55;;
21894;SDS011;11112;51.270;7.224;2022-12-18T03:28:17;11.68;;;6.63;;
21894;SDS011;11112;51.270;7.224;2022-12-18T03:30:49;12.85;;;6.80;;
21894;SDS011;11112;51.270;7.224;2022-12-18T03:33:24;13.40;;;6.43;;
21894;SDS011;11112;51.270;7.224;2022-12-18T03:35:55;11.95;;;6.60;;
21894;SDS011;11112;51.270;7.224;2022-12-18T03:38:22;12.00;;;6.80;;
21894;SDS011;11112;51.270;7.224;2022-12-18T03:40:52;12.60;;;6.45;;
21894;SDS011;11112;51.270;7.224;2022-12-18T03:43:34;13.90;;;7.07;;
21894;SDS011;11112;51.270;7.224;2022-12-18T03:46:11;13.00;;;6.68;;
21894;SDS011;11112;51.270;7.224;2022-12-18T03:48:52;16.88;;;7.85;;
21894;SDS011;11112;51.270;7.224;2022-12-18T03:51:30;17.08;;;7.95;;
21894;SDS011;11112;51.270;7.224;2022-12-18T03:54:04;16.58;;;7.65;;
21894;SDS011;11112;51.270;7.224;2022-12-18T03:56:34;14.75;;;7.30;;
21894;SDS011;11112;51.270;7.224;2022-12-18T03:59:07;15.00;;;7.65;;
21894;SDS011;11112;51.270;7.224;2022-12-18T04:01:39;12.82;;;6.55;;
21894;SDS011;11112;51.270;7.224;2022-12-18T04:04:12;12.90;;;6.68;;
21894;SDS011;11112;51.270;7.224;2022-12-18T04:06:43;12.40;;;6.80;;
21894;SDS011;11112;51.270;7.224;2022-12-18T04:09:13;14.30;;;7.22;;
21894;SDS011;11112;51.270;7.224;2022-12-18T04:11:45;12.38;;;6.53;;
21894;SDS011;11112;51.270;7.224;2022-12-18T04:14:14;12.82;;;6.80;;
21894;SDS011;11112;51.270;7.224;2022-12-18T04:16:42;11.65;;;6.70;;
21894;SDS011;11112;51.270;7.224;2022-12-18T04:19:09;14.75;;;7.20;;
21894;SDS011;11112;51.270;7.224;2022-12-18T04:21:37;13.05;;;6.80;;
21894;SDS011;11112;51.270;7.224;2022-12-18T04:24:04;12.63;;;6.63;;
21894;SDS011;11112;51.270;7.224;2022-12-18T04:26:32;11.05;;;5.93;;
21894;SDS011;11112;51.270;7.224;2022-12-18T04:29:01;13.48;;;6.55;;
21894;SDS011;11112;51.270;7.224;2022-12-18T04:31:30;11.90;;;6.28;;
21894;SDS011;11112;51.270;7.224;2022-12-18T04:33:57;12.27;;;6.65;;
21894;SDS011;11112;51.270;7.224;2022-12-18T04:36:27;11.95;;;6.70;;
21894;SDS011;11112;51.270;7.224;2022-12-18T04:38:55;14.00;;;6.60;;
21894;SDS011;11112;51.270;7.224;2022-12-18T04:41:22;12.85;;;6.65;;
21894;SDS011;11112;51.270;7.224;2022-12-18T04:43:49;12.05;;;6.35;;
21894;SDS011;11112;51.270;7.224;2022-12-18T04:46:17;13.02;;;6.88;;
21894;SDS011;11112;51.270;7.224;2022-12-18T04:48:46;12.93;;;6.35;;
21894;SDS011;11112;51.270;7.224;2022-12-18T04:51:14;12.55;;;6.40;;
21894;SDS011;11112;51.270;7.224;2022-12-18T04:53:42;12.13;;;6.35;;
21894;SDS011;11112;51.270;7.224;2022-12-18T04:56:10;13.98;;;6.70;;
21894;SDS011;11112;51.270;7.224;2022-12-18T04:58:40;12.23;;;6.35;;
21894;SDS011;11112;51.270;7.224;2022-12-18T05:01:12;11.25;;;6.10;;
21894;SDS011;11112;51.270;7.224;2022-12-18T05:03:41;10.30;;;5.50;;
21894;SDS011;11112;51.270;7.224;2022-12-18T05:06:13;10.77;;;6.00;;
21894;SDS011;11112;51.270;7.224;2022-12-18T05:08:42;11.43;;;5.70;;
21894;SDS011;11112;51.270;7.224;2022-12-18T05:11:10;8.30;;;4.63;;
21894;SDS011;11112;51.270;7.224;2022-12-18T05:13:40;10.40;;;5.57;;
21894;SDS011;11112;51.270;7.224;2022-12-18T05:16:08;10.15;;;4.85;;
21894;SDS011;11112;51.270;7.224;2022-12-18T05:18:36;10.02;;;5.32;;
21894;SDS011;11112;51.270;7.224;2022-12-18T05:21:04;8.57;;;4.75;;
21894;SDS011;11112;51.270;7.224;2022-12-18T05:23:36;9.15;;;5.25;;
21894;SDS011;11112;51.270;7.224;2022-12-18T05:26:05;8.63;;;5.03;;
21894;SDS011;11112;51.270;7.224;2022-12-18T05:28:33;9.68;;;5.43;;
21894;SDS011;11112;51.270;7.224;2022-12-18T05:31:03;9.57;;;5.05;;
21894;SDS011;11112;51.270;7.224;2022-12-18T05:33:32;9.05;;;4.80;;
21894;SDS011;11112;51.270;7.224;2022-12-18T05:36:03;9.35;;;5.03;;
21894;SDS011;11112;51.270;7.224;2022-12-18T05:38:33;9.52;;;5.30;;
21894;SDS011;11112;51.270;7.224;2022-12-18T05:41:05;10.05;;;4.88;;
21894;SDS011;11112;51.270;7.224;2022-12-18T05:43:34;10.07;;;5.32;;
21894;SDS011;11112;51.270;7.224;2022-12-18T05:46:10;10.02;;;5.30;;
21894;SDS011;11112;51.270;7.224;2022-12-18T05:48:40;9.40;;;4.97;;
21894;SDS011;11112;51.270;7.224;2022-12-18T05:51:09;12.25;;;5.85;;
21894;SDS011;11112;51.270;7.224;2022-12-18T05:53:43;9.43;;;5.32;;
21894;SDS011;11112;51.270;7.224;2022-12-18T05:56:12;10.73;;;5.60;;
21894;SDS011;11112;51.270;7.224;2022-12-18T05:58:41;10.48;;;4.97;;
21894;SDS011;11112;51.270;7.224;2022-12-18T06:01:10;9.02;;;5.07;;
21894;SDS011;11112;51.270;7.224;2022-12-18T06:03:39;10.45;;;5.40;;
21894;SDS011;11112;51.270;7.224;2022-12-18T06:06:14;10.93;;;5.97;;
21894;SDS011;11112;51.270;7.224;2022-12-18T06:08:45;11.15;;;5.97;;
21894;SDS011;11112;51.270;7.224;2022-12-18T06:11:15;9.40;;;5.35;;
21894;SDS011;11112;51.270;7.224;2022-12-18T06:13:46;11.15;;;5.68;;
21894;SDS011;11112;51.270;7.224;2022-12-18T06:16:17;10.63;;;5.72;;
21894;SDS011;11112;51.270;7.224;2022-12-18T06:18:44;12.02;;;5.95;;
21894;SDS011;11112;51.270;7.224;2022-12-18T06:21:13;11.50;;;6.07;;
21894;SDS011;11112;51.270;7.224;2022-12-18T06:23:40;11.52;;;5.47;;
21894;SDS011;11112;51.270;7.224;2022-12-18T06:26:10;11.77;;;6.40;;
21894;SDS011;11112;51.270;7.224;2022-12-18T06:28:43;12.25;;;5.93;;
21894;SDS011;11112;51.270;7.224;2022-12-18T06:31:12;11.02;;;6.57;;
21894;SDS011;11112;51.270;7.224;2022-12-18T06:33:39;11.55;;;5.90;;
21894;SDS011;11112;51.270;7.224;2022-12-18T06:36:07;12.02;;;6.30;;
21894;SDS011;11112;51.270;7.224;2022-12-18T06:38:40;11.77;;;6.50;;
21894;SDS011;11112;51.270;7.224;2022-12-18T06:41:10;11.75;;;6.35;;
21894;SDS011;11112;51.270;7.224;2022-12-18T06:43:39;11.70;;;5.93;;
21894;SDS011;11112;51.270;7.224;2022-12-18T06:46:06;12.38;;;6.60;;
21894;SDS011;11112;51.270;7.224;2022-12-18T06:48:34;13.52;;;7.00;;
21894;SDS011;11112;51.270;7.224;2022-12-18T06:51:05;12.07;;;6.30;;
21894;SDS011;11112;51.270;7.224;2022-12-18T06:53:33;14.82;;;6.70;;
21894;SDS011;11112;51.270;7.224;2022-12-18T06:56:01;13.70;;;6.82;;
21894;SDS011;11112;51.270;7.224;2022-12-18T06:58:32;15.38;;;7.10;;
21894;SDS011;11112;51.270;7.224;2022-12-18T07:01:02;14.90;;;7.07;;
21894;SDS011;11112;51.270;7.224;2022-12-18T07:03:31;13.20;;;6.97;;
21894;SDS011;11112;51.270;7.224;2022-12-18T07:05:58;12.15;;;6.93;;
21894;SDS011;11112;51.270;7.224;2022-12-18T07:08:26;13.55;;;7.20;;
21894;SDS011;11112;51.270;7.224;2022-12-18T07:10:55;14.23;;;7.18;;
21894;SDS011;11112;51.270;7.224;2022-12-18T07:13:23;13.02;;;6.80;;
21894;SDS011;11112;51.270;7.224;2022-12-18T07:15:53;16.88;;;7.63;;
21894;SDS011;11112;51.270;7.224;2022-12-18T07:18:20;14.07;;;7.43;;
21894;SDS011;11112;51.270;7.224;2022-12-18T07:20:48;14.05;;;7.63;;
21894;SDS011;11112;51.270;7.224;2022-12-18T07:23:17;13.18;;;7.18;;
21894;SDS011;11112;51.270;7.224;2022-12-18T07:25:45;17.08;;;7.68;;
21894;SDS011;11112;51.270;7.224;2022-12-18T07:28:12;14.40;;;7.75;;
21894;SDS011;11112;51.270;7.224;2022-12-18T07:30:40;15.95;;;7.32;;
21894;SDS011;11112;51.270;7.224;2022-12-18T07:33:08;15.05;;;7.53;;
21894;SDS011;11112;51.270;7.224;2022-12-18T07:35:37;14.52;;;7.20;;
21894;SDS011;11112;51.270;7.224;2022-12-18T07:38:08;14.27;;;7.60;;
21894;SDS011;11112;51.270;7.224;2022-12-18T07:40:40;13.50;;;7.10;;
21894;SDS011;11112;51.270;7.224;2022-12-18T07:43:09;13.60;;;7.55;;
21894;SDS011;11112;51.270;7.224;2022-12-18T07:45:36;16.92;;;7.63;;
21894;SDS011;11112;51.270;7.224;2022-12-18T07:48:05;16.23;;;7.35;;
21894;SDS011;11112;51.270;7.224;2022-12-18T07:50:34;13.63;;;7.40;;
21894;SDS011;11112;51.270;7.224;2022-12-18T07:53:01;12.95;;;7.32;;
21894;SDS011;11112;51.270;7.224;2022-12-18T07:55:29;15.90;;;7.85;;
21894;SDS011;11112;51.270;7.224;2022-12-18T07:58:00;14.57;;;7.68;;
21894;SDS011;11112;51.270;7.224;2022-12-18T08:00:28;15.48;;;7.65;;
21894;SDS011;11112;51.270;7.224;2022-12-18T08:02:56;15.77;;;7.00;;
21894;SDS011;11112;51.270;7.224;2022-12-18T08:05:24;14.38;;;6.63;;
21894;SDS011;11112;51.270;7.224;2022-12-18T08:07:54;12.45;;;6.88;;
21894;SDS011;11112;51.270;7.224;2022-12-18T08:10:22;11.43;;;6.28;;
21894;SDS011;11112;51.270;7.224;2022-12-18T08:12:49;13.35;;;6.40;;
21894;SDS011;11112;51.270;7.224;2022-12-18T08:15:17;12.32;;;6.57;;
21894;SDS011;11112;51.270;7.224;2022-12-18T08:17:44;12.63;;;6.85;;
21894;SDS011;11112;51.270;7.224;2022-12-18T08:20:12;13.43;;;6.53;;
21894;SDS011;11112;51.270;7.224;2022-12-18T08:22:41;12.77;;;6.90;;
21894;SDS011;11112;51.270;7.224;2022-12-18T08:25:10;13.27;;;6.13;;
21894;SDS011;11112;51.270;7.224;2022-12-18T08:27:37;14.00;;;6.30;;
21894;SDS011;11112;51.270;7.224;2022-12-18T08:30:07;12.55;;;6.40;;
21894;SDS011;11112;51.270;7.224;2022-12-18T08:32:36;12.82;;;6.47;;
21894;SDS011;11112;51.270;7.224;2022-12-18T08:35:04;11.93;;;6.15;;
21894;SDS011;11112;51.270;7.224;2022-12-18T08:37:34;12.55;;;6.25;;
21894;SDS011;11112;51.270;7.224;2022-12-18T08:40:02;10.65;;;5.90;;
21894;SDS011;11112;51.270;7.224;2022-12-18T08:42:34;10.70;;;5.70;;
21894;SDS011;11112;51.270;7.224;2022-12-18T08:45:19;11.88;;;6.18;;
21894;SDS011;11112;51.270;7.224;2022-12-18T08:47:46;12.27;;;5.82;;
21894;SDS011;11112;51.270;7.224;2022-12-18T08:50:15;13.27;;;6.43;;
21894;SDS011;11112;51.270;7.224;2022-12-18T08:52:45;11.45;;;5.93;;
21894;SDS011;11112;51.270;7.224;2022-12-18T08:55:13;11.25;;;5.50;;
21894;SDS011;11112;51.270;7.224;2022-12-18T08:57:42;10.20;;;5.70;;
21894;SDS011;11112;51.270;7.224;2022-12-18T09:00:16;11.95;;;5.80;;
21894;SDS011;11112;51.270;7.224;2022-12-18T09:02:45;10.07;;;5.47;;
21894;SDS011;11112;51.270;7.224;2022-12-18T09:05:12;11.13;;;5.47;;
21894;SDS011;11112;51.270;7.224;2022-12-18T09:07:42;11.60;;;6.15;;
21894;SDS011;11112;51.270;7.224;2022-12-18T09:10:09;11.20;;;5.65;;
21894;SDS011;11112;51.270;7.224;2022-12-18T09:12:37;11.88;;;5.68;;
21894;SDS011;11112;51.270;7.224;2022-12-18T09:15:07;11.75;;;5.90;;
21894;SDS011;11112;51.270;7.224;2022-12-18T09:17:36;11.77;;;5.80;;
21894;SDS011;11112;51.270;7.224;2022-12-18T09:20:04;11.18;;;5.22;;
21894;SDS011;11112;51.270;7.224;2022-12-18T09:22:36;10.82;;;5.45;;
21894;SDS011;11112;51.270;7.224;2022-12-18T09:25:06;9.68;;;5.38;;
21894;SDS011;11112;51.270;7.224;2022-12-18T09:27:36;9.85;;;5.25;;
21894;SDS011;11112;51.270;7.224;2022-12-18T09:30:09;9.90;;;5.47;;
21894;SDS011;11112;51.270;7.224;2022-12-18T09:32:39;10.48;;;5.63;;
21894;SDS011;11112;51.270;7.224;2022-12-18T09:35:07;12.20;;;5.63;;
21894;SDS011;11112;51.270;7.224;2022-12-18T09:37:34;10.80;;;5.38;;
21894;SDS011;11112;51.270;7.224;2022-12-18T09:40:09;9.15;;;5.05;;
21894;SDS011;11112;51.270;7.224;2022-12-18T09:42:40;9.60;;;5.22;;
21894;SDS011;11112;51.270;7.224;2022-12-18T09:47:43;10.80;;;5.13;;
21894;SDS011;11112;51.270;7.224;2022-12-18T09:50:16;9.02;;;4.60;;
21894;SDS011;11112;51.270;7.224;2022-12-18T09:52:55;10.02;;;4.72;;
21894;SDS011;11112;51.270;7.224;2022-12-18T09:55:32;8.77;;;4.65;;
21894;SDS011;11112;51.270;7.224;2022-12-18T09:58:05;8.27;;;4.47;;
21894;SDS011;11112;51.270;7.224;2022-12-18T10:00:43;8.63;;;4.55;;
21894;SDS011;11112;51.270;7.224;2022-12-18T10:03:11;8.55;;;4.43;;
21894;SDS011;11112;51.270;7.224;2022-12-18T10:05:43;8.50;;;4.45;;
21894;SDS011;11112;51.270;7.224;2022-12-18T10:08:24;7.75;;;4.20;;
21894;SDS011;11112;51.270;7.224;2022-12-18T10:11:03;8.15;;;4.32;;
21894;SDS011;11112;51.270;7.224;2022-12-18T10:14:04;8.32;;;4.25;;
21894;SDS011;11112;51.270;7.224;2022-12-18T10:16:46;8.73;;;4.57;;
21894;SDS011;11112;51.270;7.224;2022-12-18T10:19:37;7.55;;;4.13;;
21894;SDS011;11112;51.270;7.224;2022-12-18T10:22:36;8.10;;;4.45;;
21894;SDS011;11112;51.270;7.224;2022-12-18T10:25:17;8.98;;;4.70;;
21894;SDS011;11112;51.270;7.224;2022-12-18T10:27:51;8.45;;;4.55;;
21894;SDS011;11112;51.270;7.224;2022-12-18T10:30:24;11.05;;;4.60;;
21894;SDS011;11112;51.270;7.224;2022-12-18T10:32:53;8.77;;;4.78;;
21894;SDS011;11112;51.270;7.224;2022-12-18T10:35:27;9.55;;;4.75;;
21894;SDS011;11112;51.270;7.224;2022-12-18T10:37:59;9.10;;;4.90;;
21894;SDS011;11112;51.270;7.224;2022-12-18T10:40:58;9.23;;;4.57;;
21894;SDS011;11112;51.270;7.224;2022-12-18T10:43:28;9.40;;;4.90;;
21894;SDS011;11112;51.270;7.224;2022-12-18T10:48:52;9.15;;;4.68;;
21894;SDS011;11112;51.270;7.224;2022-12-18T10:51:25;9.10;;;4.80;;
21894;SDS011;11112;51.270;7.224;2022-12-18T10:53:55;9.63;;;4.80;;
21894;SDS011;11112;51.270;7.224;2022-12-18T10:56:26;8.57;;;4.93;;
21894;SDS011;11112;51.270;7.224;2022-12-18T10:58:58;11.63;;;5.18;;
21894;SDS011;11112;51.270;7.224;2022-12-18T11:01:30;10.32;;;4.60;;
21894;SDS011;11112;51.270;7.224;2022-12-18T11:04:18;9.05;;;5.00;;
21894;SDS011;11112;51.270;7.224;2022-12-18T11:06:55;10.18;;;4.90;;
21894;SDS011;11112;51.270;7.224;2022-12-18T11:09:25;8.82;;;4.78;;
21894;SDS011;11112;51.270;7.224;2022-12-18T11:11:54;11.73;;;5.15;;
21894;SDS011;11112;51.270;7.224;2022-12-18T11:14:28;12.18;;;5.35;;
21894;SDS011;11112;51.270;7.224;2022-12-18T11:17:16;9.77;;;4.90;;
21894;SDS011;11112;51.270;7.224;2022-12-18T11:19:53;9.13;;;5.05;;
21894;SDS011;11112;51.270;7.224;2022-12-18T11:22:23;8.70;;;4.85;;
21894;SDS011;11112;51.270;7.224;2022-12-18T11:24:55;9.68;;;5.28;;
21894;SDS011;11112;51.270;7.224;2022-12-18T11:27:28;9.57;;;4.93;;
21894;SDS011;11112;51.270;7.224;2022-12-18T11:30:06;11.38;;;5.20;;
21894;SDS011;11112;51.270;7.224;2022-12-18T11:35:15;8.52;;;4.72;;
21894;SDS011;11112;51.270;7.224;2022-12-18T11:37:48;10.48;;;5.40;;
21894;SDS011;11112;51.270;7.224;2022-12-18T11:40:25;10.93;;;5.57;;
21894;SDS011;11112;51.270;7.224;2022-12-18T11:43:02;11.18;;;5.80;;
21894;SDS011;11112;51.270;7.224;2022-12-18T11:45:37;10.32;;;5.40;;
21894;SDS011;11112;51.270;7.224;2022-12-18T11:50:46;13.38;;;6.30;;
21894;SDS011;11112;51.270;7.224;2022-12-18T11:53:18;12.65;;;6.15;;
21894;SDS011;11112;51.270;7.224;2022-12-18T11:55:53;10.93;;;6.05;;
21894;SDS011;11112;51.270;7.224;2022-12-18T11:58:32;11.57;;;6.25;;
21894;SDS011;11112;51.270;7.224;2022-12-18T12:01:13;11.00;;;5.85;;
21894;SDS011;11112;51.270;7.224;2022-12-18T12:07:10;11.25;;;5.93;;
21894;SDS011;11112;51.270;7.224;2022-12-18T12:09:55;12.38;;;6.50;;
21894;SDS011;11112;51.270;7.224;2022-12-18T12:12:37;11.15;;;6.50;;
21894;SDS011;11112;51.270;7.224;2022-12-18T12:15:27;13.05;;;6.80;;
21894;SDS011;11112;51.270;7.224;2022-12-18T12:18:06;12.02;;;6.53;;
21894;SDS011;11112;51.270;7.224;2022-12-18T12:20:46;13.73;;;6.70;;
21894;SDS011;11112;51.270;7.224;2022-12-18T12:23:26;14.63;;;6.90;;
21894;SDS011;11112;51.270;7.224;2022-12-18T12:26:04;12.30;;;7.07;;
21894;SDS011;11112;51.270;7.224;2022-12-18T12:28:52;14.90;;;7.60;;
21894;SDS011;11112;51.270;7.224;2022-12-18T12:34:23;15.70;;;7.43;;
21894;SDS011;11112;51.270;7.224;2022-12-18T12:36:58;13.60;;;7.68;;
21894;SDS011;11112;51.270;7.224;2022-12-18T12:39:39;14.45;;;7.60;;
21894;SDS011;11112;51.270;7.224;2022-12-18T12:42:11;14.80;;;7.95;;
21894;SDS011;11112;51.270;7.224;2022-12-18T12:45:05;13.05;;;7.43;;
21894;SDS011;11112;51.270;7.224;2022-12-18T12:47:38;18.17;;;8.40;;
21894;SDS011;11112;51.270;7.224;2022-12-18T12:50:13;17.92;;;8.00;;
21894;SDS011;11112;51.270;7.224;2022-12-18T12:52:45;17.02;;;8.10;;
21894;SDS011;11112;51.270;7.224;2022-12-18T12:55:19;16.23;;;7.88;;
21894;SDS011;11112;51.270;7.224;2022-12-18T12:57:52;14.38;;;7.90;;
21894;SDS011;11112;51.270;7.224;2022-12-18T13:00:28;16.27;;;8.60;;
21894;SDS011;11112;51.270;7.224;2022-12-18T13:03:04;17.35;;;8.48;;
21894;SDS011;11112;51.270;7.224;2022-12-18T13:05:43;17.88;;;8.85;;
21894;SDS011;11112;51.270;7.224;2022-12-18T13:08:22;19.10;;;9.00;;
21894;SDS011;11112;51.270;7.224;2022-12-18T13:10:53;16.80;;;9.15;;
21894;SDS011;11112;51.270;7.224;2022-12-18T13:13:47;20.00;;;9.70;;
21894;SDS011;11112;51.270;7.224;2022-12-18T13:16:19;16.35;;;8.80;;
21894;SDS011;11112;51.270;7.224;2022-12-18T13:18:49;19.98;;;9.82;;
21894;SDS011;11112;51.270;7.224;2022-12-18T13:21:21;17.55;;;9.90;;
21894;SDS011;11112;51.270;7.224;2022-12-18T13:23:52;18.90;;;10.33;;
21894;SDS011;11112;51.270;7.224;2022-12-18T13:26:32;17.90;;;9.80;;
21894;SDS011;11112;51.270;7.224;2022-12-18T13:29:01;17.20;;;9.82;;
21894;SDS011;11112;51.270;7.224;2022-12-18T13:34:26;19.45;;;10.07;;
21894;SDS011;11112;51.270;7.224;2022-12-18T13:37:35;21.88;;;11.43;;
21894;SDS011;11112;51.270;7.224;2022-12-18T13:43:37;24.05;;;11.40;;
21894;SDS011;11112;51.270;7.224;2022-12-18T13:46:19;20.42;;;11.43;;
21894;SDS011;11112;51.270;7.224;2022-12-18T13:48:52;21.17;;;11.95;;
21894;SDS011;11112;51.270;7.224;2022-12-18T13:51:24;21.30;;;11.35;;
21894;SDS011;11112;51.270;7.224;2022-12-18T13:54:02;21.50;;;11.70;;
21894;SDS011;11112;51.270;7.224;2022-12-18T13:56:45;20.45;;;11.60;;
21894;SDS011;11112;51.270;7.224;2022-12-18T13:59:21;22.38;;;12.50;;
21894;SDS011;11112;51.270;7.224;2022-12-18T14:01:51;27.08;;;12.48;;
21894;SDS011;11112;51.270;7.224;2022-12-18T14:04:24;25.08;;;14.30;;
21894;SDS011;11112;51.270;7.224;2022-12-18T14:06:56;23.98;;;13.45;;
21894;SDS011;11112;51.270;7.224;2022-12-18T14:09:29;23.17;;;12.77;;
21894;SDS011;11112;51.270;7.224;2022-12-18T14:12:03;25.38;;;13.15;;
21894;SDS011;11112;51.270;7.224;2022-12-18T14:14:51;23.55;;;12.77;;
21894;SDS011;11112;51.270;7.224;2022-12-18T14:17:19;24.73;;;12.90;;
21894;SDS011;11112;51.270;7.224;2022-12-18T14:19:48;24.13;;;12.90;;
21894;SDS011;11112;51.270;7.224;2022-12-18T14:22:18;24.63;;;13.20;;
21894;SDS011;11112;51.270;7.224;2022-12-18T14:24:47;25.05;;;13.13;;
21894;SDS011;11112;51.270;7.224;2022-12-18T14:27:41;23.85;;;12.68;;
21894;SDS011;11112;51.270;7.224;2022-12-18T14:30:28;23.75;;;13.05;;
21894;SDS011;11112;51.270;7.224;2022-12-18T14:33:02;23.55;;;13.10;;
21894;SDS011;11112;51.270;7.224;2022-12-18T14:35:35;22.30;;;12.35;;
21894;SDS011;11112;51.270;7.224;2022-12-18T14:38:11;24.88;;;13.10;;
21894;SDS011;11112;51.270;7.224;2022-12-18T14:40:51;25.13;;;13.85;;
21894;SDS011;11112;51.270;7.224;2022-12-18T14:43:20;23.80;;;13.70;;
21894;SDS011;11112;51.270;7.224;2022-12-18T14:45:49;25.00;;;13.50;;
21894;SDS011;11112;51.270;7.224;2022-12-18T14:48:17;26.63;;;13.88;;
21894;SDS011;11112;51.270;7.224;2022-12-18T14:50:54;26.52;;;13.82;;
21894;SDS011;11112;51.270;7.224;2022-12-18T14:53:32;25.92;;;14.25;;
21894;SDS011;11112;51.270;7.224;2022-12-18T14:56:03;25.90;;;14.18;;
21894;SDS011;11112;51.270;7.224;2022-12-18T14:58:45;27.83;;;13.85;;
21894;SDS011;11112;51.270;7.224;2022-12-18T15:01:21;26.92;;;13.85;;
21894;SDS011;11112;51.270;7.224;2022-12-18T15:07:11;27.33;;;14.68;;
21894;SDS011;11112;51.270;7.224;2022-12-18T15:09:44;27.73;;;14.65;;
21894;SDS011;11112;51.270;7.224;2022-12-18T15:12:34;28.63;;;14.80;;
21894;SDS011;11112;51.270;7.224;2022-12-18T15:18:13;26.27;;;14.38;;
21894;SDS011;11112;51.270;7.224;2022-12-18T15:20:55;26.90;;;15.05;;
21894;SDS011;11112;51.270;7.224;2022-12-18T15:23:30;27.58;;;14.50;;
21894;SDS011;11112;51.270;7.224;2022-12-18T15:26:15;29.02;;;14.27;;
21894;SDS011;11112;51.270;7.224;2022-12-18T15:28:46;27.38;;;15.05;;
21894;SDS011;11112;51.270;7.224;2022-12-18T15:31:24;26.10;;;14.15;;
21894;SDS011;11112;51.270;7.224;2022-12-18T15:34:30;31.73;;;15.52;;
21894;SDS011;11112;51.270;7.224;2022-12-18T15:37:01;28.00;;;14.70;;
21894;SDS011;11112;51.270;7.224;2022-12-18T15:39:35;29.83;;;15.85;;